sensor_id;sensor_type;location;lat;lon;timestamp;P1;durP1;ratioP1;P2;durP2;ratioP2
10311;SDS011;5201;48.776;9.128;2022-12-10T00:03:35;27.13;;;12.60;;
10311;SDS011;5201;48.776;9.128;2022-12-10T00:06:02;23.30;;;12.20;;
10311;SDS011;5201;48.776;9.128;2022-12-10T00:08:29;31.00;;;13.37;;
10311;SDS011;5201;48.776;9.128;2022-12-10T00:10:55;26.37;;;13.20;;
10311;SDS011;5201;48.776;9.128;2022-12-10T00:13:21;26.50;;;13.80;;
10311;SDS011;5201;48.776;9.128;2022-12-10T00:15:46;23.33;;;12.93;;
10311;SDS011;5201;48.776;9.128;2022-12-10T00:18:12;25.67;;;12.30;;
10311;SDS011;5201;48.776;9.128;2022-12-10T00:20:37;26.17;;;12.03;;
10311;SDS011;5201;48.776;9.128;2022-12-10T00:23:03;23.03;;;12.37;;
10311;SDS011;5201;48.776;9.128;2022-12-10T00:25:29;21.93;;;12.40;;
10311;SDS011;5201;48.776;9.128;2022-12-10T00:27:56;20.47;;;12.03;;
10311;SDS011;5201;48.776;9.128;2022-12-10T00:30:21;25.57;;;12.90;;
10311;SDS011;5201;48.776;9.128;2022-12-10T00:32:47;24.53;;;12.93;;
10311;SDS011;5201;48.776;9.128;2022-12-10T00:35:12;24.00;;;12.10;;
10311;SDS011;5201;48.776;9.128;2022-12-10T00:37:38;21.47;;;11.20;;
10311;SDS011;5201;48.776;9.128;2022-12-10T00:40:04;21.63;;;11.80;;
10311;SDS011;5201;48.776;9.128;2022-12-10T00:42:30;28.97;;;12.57;;
10311;SDS011;5201;48.776;9.128;2022-12-10T00:44:55;26.90;;;13.23;;
10311;SDS011;5201;48.776;9.128;2022-12-10T00:47:21;24.77;;;13.33;;
10311;SDS011;5201;48.776;9.128;2022-12-10T00:49:46;28.07;;;13.57;;
10311;SDS011;5201;48.776;9.128;2022-12-10T00:52:12;27.27;;;13.90;;
10311;SDS011;5201;48.776;9.128;2022-12-10T00:54:38;23.00;;;12.37;;
10311;SDS011;5201;48.776;9.128;2022-12-10T00:57:03;21.23;;;11.70;;
10311;SDS011;5201;48.776;9.128;2022-12-10T00:59:29;26.50;;;13.47;;
10311;SDS011;5201;48.776;9.128;2022-12-10T01:01:54;21.30;;;12.13;;
10311;SDS011;5201;48.776;9.128;2022-12-10T01:04:20;23.50;;;11.47;;
10311;SDS011;5201;48.776;9.128;2022-12-10T01:09:16;24.07;;;12.23;;
10311;SDS011;5201;48.776;9.128;2022-12-10T01:11:44;24.43;;;12.40;;
10311;SDS011;5201;48.776;9.128;2022-12-10T01:14:11;25.97;;;12.53;;
10311;SDS011;5201;48.776;9.128;2022-12-10T01:16:39;20.13;;;11.50;;
10311;SDS011;5201;48.776;9.128;2022-12-10T01:19:05;27.37;;;12.87;;
10311;SDS011;5201;48.776;9.128;2022-12-10T01:21:31;25.60;;;12.97;;
10311;SDS011;5201;48.776;9.128;2022-12-10T01:23:57;23.50;;;12.27;;
10311;SDS011;5201;48.776;9.128;2022-12-10T01:26:24;24.63;;;13.70;;
10311;SDS011;5201;48.776;9.128;2022-12-10T01:28:51;23.17;;;12.30;;
10311;SDS011;5201;48.776;9.128;2022-12-10T01:31:19;26.83;;;12.87;;
10311;SDS011;5201;48.776;9.128;2022-12-10T01:33:49;22.13;;;10.97;;
10311;SDS011;5201;48.776;9.128;2022-12-10T01:36:16;22.97;;;12.37;;
10311;SDS011;5201;48.776;9.128;2022-12-10T01:38:53;22.70;;;13.50;;
10311;SDS011;5201;48.776;9.128;2022-12-10T01:41:23;26.33;;;13.47;;
10311;SDS011;5201;48.776;9.128;2022-12-10T01:43:52;24.23;;;14.00;;
10311;SDS011;5201;48.776;9.128;2022-12-10T01:46:42;21.87;;;12.77;;
10311;SDS011;5201;48.776;9.128;2022-12-10T01:49:11;25.77;;;13.23;;
10311;SDS011;5201;48.776;9.128;2022-12-10T01:51:40;20.43;;;11.83;;
10311;SDS011;5201;48.776;9.128;2022-12-10T01:54:09;26.40;;;14.13;;
10311;SDS011;5201;48.776;9.128;2022-12-10T01:56:38;23.03;;;12.90;;
10311;SDS011;5201;48.776;9.128;2022-12-10T01:59:05;23.57;;;12.77;;
10311;SDS011;5201;48.776;9.128;2022-12-10T02:04:10;22.17;;;11.57;;
10311;SDS011;5201;48.776;9.128;2022-12-10T02:09:45;22.90;;;11.90;;
10311;SDS011;5201;48.776;9.128;2022-12-10T02:12:29;26.77;;;12.60;;
10311;SDS011;5201;48.776;9.128;2022-12-10T02:15:07;24.83;;;13.03;;
10311;SDS011;5201;48.776;9.128;2022-12-10T02:17:40;26.03;;;13.37;;
10311;SDS011;5201;48.776;9.128;2022-12-10T02:23:07;22.17;;;11.77;;
10311;SDS011;5201;48.776;9.128;2022-12-10T02:32:00;22.93;;;12.47;;
10311;SDS011;5201;48.776;9.128;2022-12-10T02:34:40;26.03;;;12.80;;
10311;SDS011;5201;48.776;9.128;2022-12-10T02:37:19;23.60;;;12.57;;
10311;SDS011;5201;48.776;9.128;2022-12-10T02:39:49;21.57;;;12.07;;
10311;SDS011;5201;48.776;9.128;2022-12-10T02:42:18;23.53;;;12.10;;
10311;SDS011;5201;48.776;9.128;2022-12-10T02:44:46;24.70;;;13.53;;
10311;SDS011;5201;48.776;9.128;2022-12-10T02:47:13;26.83;;;12.73;;
10311;SDS011;5201;48.776;9.128;2022-12-10T02:49:41;24.17;;;11.97;;
10311;SDS011;5201;48.776;9.128;2022-12-10T02:52:11;23.43;;;11.57;;
10311;SDS011;5201;48.776;9.128;2022-12-10T03:00:03;23.03;;;12.77;;
10311;SDS011;5201;48.776;9.128;2022-12-10T03:08:01;24.73;;;13.77;;
10311;SDS011;5201;48.776;9.128;2022-12-10T03:13:10;26.83;;;12.90;;
10311;SDS011;5201;48.776;9.128;2022-12-10T03:15:40;28.20;;;13.80;;
10311;SDS011;5201;48.776;9.128;2022-12-10T03:18:08;17.73;;;10.50;;
10311;SDS011;5201;48.776;9.128;2022-12-10T03:20:37;29.53;;;13.10;;
10311;SDS011;5201;48.776;9.128;2022-12-10T03:23:09;20.83;;;11.20;;
10311;SDS011;5201;48.776;9.128;2022-12-10T03:25:38;25.97;;;12.33;;
10311;SDS011;5201;48.776;9.128;2022-12-10T03:28:04;20.50;;;11.67;;
10311;SDS011;5201;48.776;9.128;2022-12-10T03:30:31;20.03;;;12.13;;
10311;SDS011;5201;48.776;9.128;2022-12-10T03:32:58;22.33;;;11.40;;
10311;SDS011;5201;48.776;9.128;2022-12-10T03:35:25;24.10;;;11.90;;
10311;SDS011;5201;48.776;9.128;2022-12-10T03:37:51;25.57;;;12.20;;
10311;SDS011;5201;48.776;9.128;2022-12-10T03:40:18;20.57;;;12.03;;
10311;SDS011;5201;48.776;9.128;2022-12-10T03:42:47;22.53;;;12.30;;
10311;SDS011;5201;48.776;9.128;2022-12-10T03:45:13;20.53;;;10.57;;
10311;SDS011;5201;48.776;9.128;2022-12-10T03:47:40;26.07;;;13.50;;
10311;SDS011;5201;48.776;9.128;2022-12-10T03:50:06;23.27;;;12.17;;
10311;SDS011;5201;48.776;9.128;2022-12-10T03:52:31;23.60;;;11.93;;
10311;SDS011;5201;48.776;9.128;2022-12-10T03:54:57;19.53;;;11.23;;
10311;SDS011;5201;48.776;9.128;2022-12-10T03:57:23;21.13;;;10.93;;
10311;SDS011;5201;48.776;9.128;2022-12-10T03:59:48;23.10;;;12.03;;
10311;SDS011;5201;48.776;9.128;2022-12-10T04:02:14;23.03;;;12.30;;
10311;SDS011;5201;48.776;9.128;2022-12-10T04:04:39;22.23;;;11.30;;
10311;SDS011;5201;48.776;9.128;2022-12-10T04:07:05;17.20;;;10.93;;
10311;SDS011;5201;48.776;9.128;2022-12-10T04:09:30;19.77;;;11.13;;
10311;SDS011;5201;48.776;9.128;2022-12-10T04:11:57;21.37;;;11.13;;
10311;SDS011;5201;48.776;9.128;2022-12-10T04:14:23;22.97;;;12.13;;
10311;SDS011;5201;48.776;9.128;2022-12-10T04:17:07;19.87;;;11.07;;
10311;SDS011;5201;48.776;9.128;2022-12-10T04:19:33;25.17;;;10.63;;
10311;SDS011;5201;48.776;9.128;2022-12-10T04:21:59;20.27;;;11.77;;
10311;SDS011;5201;48.776;9.128;2022-12-10T04:24:43;23.67;;;12.30;;
10311;SDS011;5201;48.776;9.128;2022-12-10T04:27:28;23.90;;;11.17;;
10311;SDS011;5201;48.776;9.128;2022-12-10T04:29:56;21.83;;;12.07;;
10311;SDS011;5201;48.776;9.128;2022-12-10T04:32:23;21.73;;;11.20;;
10311;SDS011;5201;48.776;9.128;2022-12-10T04:34:49;20.97;;;10.20;;
10311;SDS011;5201;48.776;9.128;2022-12-10T04:37:15;23.97;;;13.63;;
10311;SDS011;5201;48.776;9.128;2022-12-10T04:39:42;27.73;;;12.53;;
10311;SDS011;5201;48.776;9.128;2022-12-10T04:42:07;18.37;;;11.53;;
10311;SDS011;5201;48.776;9.128;2022-12-10T04:44:33;25.57;;;13.50;;
10311;SDS011;5201;48.776;9.128;2022-12-10T04:46:59;24.20;;;12.83;;
10311;SDS011;5201;48.776;9.128;2022-12-10T04:49:25;22.77;;;11.90;;
10311;SDS011;5201;48.776;9.128;2022-12-10T04:51:51;21.60;;;11.67;;
10311;SDS011;5201;48.776;9.128;2022-12-10T04:54:18;22.97;;;12.23;;
10311;SDS011;5201;48.776;9.128;2022-12-10T04:56:44;23.23;;;11.83;;
10311;SDS011;5201;48.776;9.128;2022-12-10T04:59:10;24.67;;;12.37;;
10311;SDS011;5201;48.776;9.128;2022-12-10T05:01:36;20.00;;;10.93;;
10311;SDS011;5201;48.776;9.128;2022-12-10T05:04:03;24.17;;;11.30;;
10311;SDS011;5201;48.776;9.128;2022-12-10T05:06:30;22.03;;;11.60;;
10311;SDS011;5201;48.776;9.128;2022-12-10T05:08:57;23.13;;;12.37;;
10311;SDS011;5201;48.776;9.128;2022-12-10T05:11:23;24.20;;;12.47;;
10311;SDS011;5201;48.776;9.128;2022-12-10T05:13:50;26.87;;;12.97;;
10311;SDS011;5201;48.776;9.128;2022-12-10T05:16:18;20.43;;;10.93;;
10311;SDS011;5201;48.776;9.128;2022-12-10T05:18:44;25.70;;;11.80;;
10311;SDS011;5201;48.776;9.128;2022-12-10T05:21:11;18.90;;;11.40;;
10311;SDS011;5201;48.776;9.128;2022-12-10T05:23:40;22.73;;;11.97;;
10311;SDS011;5201;48.776;9.128;2022-12-10T05:26:11;19.20;;;10.77;;
10311;SDS011;5201;48.776;9.128;2022-12-10T05:28:38;23.70;;;12.57;;
10311;SDS011;5201;48.776;9.128;2022-12-10T05:31:10;24.13;;;12.67;;
10311;SDS011;5201;48.776;9.128;2022-12-10T05:33:40;26.03;;;12.93;;
10311;SDS011;5201;48.776;9.128;2022-12-10T05:36:06;22.93;;;12.67;;
10311;SDS011;5201;48.776;9.128;2022-12-10T05:38:34;22.73;;;12.27;;
10311;SDS011;5201;48.776;9.128;2022-12-10T05:41:00;21.03;;;11.60;;
10311;SDS011;5201;48.776;9.128;2022-12-10T05:43:30;24.57;;;11.97;;
10311;SDS011;5201;48.776;9.128;2022-12-10T05:46:00;19.50;;;11.33;;
10311;SDS011;5201;48.776;9.128;2022-12-10T05:48:26;22.10;;;11.27;;
10311;SDS011;5201;48.776;9.128;2022-12-10T05:50:52;27.00;;;13.07;;
10311;SDS011;5201;48.776;9.128;2022-12-10T05:53:17;23.90;;;12.50;;
10311;SDS011;5201;48.776;9.128;2022-12-10T05:55:43;23.20;;;12.70;;
10311;SDS011;5201;48.776;9.128;2022-12-10T05:58:09;25.37;;;12.57;;
10311;SDS011;5201;48.776;9.128;2022-12-10T06:00:35;22.27;;;12.43;;
10311;SDS011;5201;48.776;9.128;2022-12-10T06:03:03;23.77;;;11.33;;
10311;SDS011;5201;48.776;9.128;2022-12-10T06:05:29;23.47;;;12.70;;
10311;SDS011;5201;48.776;9.128;2022-12-10T06:07:54;23.23;;;10.83;;
10311;SDS011;5201;48.776;9.128;2022-12-10T06:10:20;25.97;;;13.43;;
10311;SDS011;5201;48.776;9.128;2022-12-10T06:12:45;22.97;;;12.80;;
10311;SDS011;5201;48.776;9.128;2022-12-10T06:15:11;28.20;;;13.23;;
10311;SDS011;5201;48.776;9.128;2022-12-10T06:17:37;26.73;;;12.97;;
10311;SDS011;5201;48.776;9.128;2022-12-10T06:20:02;25.37;;;13.13;;
10311;SDS011;5201;48.776;9.128;2022-12-10T06:22:28;27.83;;;13.20;;
10311;SDS011;5201;48.776;9.128;2022-12-10T06:24:54;22.80;;;11.97;;
10311;SDS011;5201;48.776;9.128;2022-12-10T06:27:19;23.00;;;13.03;;
10311;SDS011;5201;48.776;9.128;2022-12-10T06:29:45;22.43;;;12.93;;
10311;SDS011;5201;48.776;9.128;2022-12-10T06:32:10;26.03;;;13.50;;
10311;SDS011;5201;48.776;9.128;2022-12-10T06:34:36;25.40;;;11.37;;
10311;SDS011;5201;48.776;9.128;2022-12-10T06:37:01;20.23;;;12.03;;
10311;SDS011;5201;48.776;9.128;2022-12-10T06:39:27;25.07;;;13.13;;
10311;SDS011;5201;48.776;9.128;2022-12-10T06:41:52;21.67;;;12.03;;
10311;SDS011;5201;48.776;9.128;2022-12-10T06:44:18;20.77;;;12.40;;
10311;SDS011;5201;48.776;9.128;2022-12-10T06:46:43;23.03;;;12.47;;
10311;SDS011;5201;48.776;9.128;2022-12-10T06:49:09;22.33;;;12.27;;
10311;SDS011;5201;48.776;9.128;2022-12-10T06:51:35;26.43;;;12.90;;
10311;SDS011;5201;48.776;9.128;2022-12-10T06:54:00;24.97;;;13.27;;
10311;SDS011;5201;48.776;9.128;2022-12-10T06:56:26;19.17;;;11.53;;
10311;SDS011;5201;48.776;9.128;2022-12-10T06:58:51;26.50;;;12.73;;
10311;SDS011;5201;48.776;9.128;2022-12-10T07:01:21;20.87;;;12.30;;
10311;SDS011;5201;48.776;9.128;2022-12-10T07:03:52;23.70;;;13.10;;
10311;SDS011;5201;48.776;9.128;2022-12-10T07:06:20;22.90;;;11.87;;
10311;SDS011;5201;48.776;9.128;2022-12-10T07:08:46;20.23;;;12.87;;
10311;SDS011;5201;48.776;9.128;2022-12-10T07:11:13;18.63;;;11.33;;
10311;SDS011;5201;48.776;9.128;2022-12-10T07:13:41;24.03;;;13.23;;
10311;SDS011;5201;48.776;9.128;2022-12-10T07:16:13;29.43;;;13.53;;
10311;SDS011;5201;48.776;9.128;2022-12-10T07:18:47;24.07;;;12.10;;
10311;SDS011;5201;48.776;9.128;2022-12-10T07:21:15;23.40;;;13.10;;
10311;SDS011;5201;48.776;9.128;2022-12-10T07:23:42;26.00;;;13.83;;
10311;SDS011;5201;48.776;9.128;2022-12-10T07:26:07;21.37;;;12.53;;
10311;SDS011;5201;48.776;9.128;2022-12-10T07:28:33;25.87;;;13.30;;
10311;SDS011;5201;48.776;9.128;2022-12-10T07:31:02;27.43;;;13.47;;
10311;SDS011;5201;48.776;9.128;2022-12-10T07:33:29;24.03;;;12.23;;
10311;SDS011;5201;48.776;9.128;2022-12-10T07:35:54;20.50;;;10.83;;
10311;SDS011;5201;48.776;9.128;2022-12-10T07:38:21;25.03;;;13.47;;
10311;SDS011;5201;48.776;9.128;2022-12-10T07:40:47;21.27;;;12.97;;
10311;SDS011;5201;48.776;9.128;2022-12-10T07:43:13;25.00;;;12.20;;
10311;SDS011;5201;48.776;9.128;2022-12-10T07:45:39;26.37;;;13.70;;
10311;SDS011;5201;48.776;9.128;2022-12-10T07:48:04;21.80;;;13.17;;
10311;SDS011;5201;48.776;9.128;2022-12-10T07:50:30;20.30;;;11.63;;
10311;SDS011;5201;48.776;9.128;2022-12-10T07:52:55;22.03;;;13.03;;
10311;SDS011;5201;48.776;9.128;2022-12-10T07:55:21;19.83;;;11.73;;
10311;SDS011;5201;48.776;9.128;2022-12-10T07:57:47;24.07;;;13.20;;
10311;SDS011;5201;48.776;9.128;2022-12-10T08:00:12;25.97;;;13.53;;
10311;SDS011;5201;48.776;9.128;2022-12-10T08:02:38;25.07;;;13.60;;
10311;SDS011;5201;48.776;9.128;2022-12-10T08:05:04;26.80;;;14.23;;
10311;SDS011;5201;48.776;9.128;2022-12-10T08:07:29;24.57;;;12.23;;
10311;SDS011;5201;48.776;9.128;2022-12-10T08:09:55;21.97;;;12.30;;
10311;SDS011;5201;48.776;9.128;2022-12-10T08:12:21;20.83;;;12.57;;
10311;SDS011;5201;48.776;9.128;2022-12-10T08:14:46;24.70;;;12.53;;
10311;SDS011;5201;48.776;9.128;2022-12-10T08:17:12;23.97;;;13.70;;
10311;SDS011;5201;48.776;9.128;2022-12-10T08:19:37;26.60;;;13.10;;
10311;SDS011;5201;48.776;9.128;2022-12-10T08:22:03;24.07;;;13.37;;
10311;SDS011;5201;48.776;9.128;2022-12-10T08:24:28;24.63;;;12.77;;
10311;SDS011;5201;48.776;9.128;2022-12-10T08:26:54;26.20;;;14.27;;
10311;SDS011;5201;48.776;9.128;2022-12-10T08:29:19;22.40;;;12.53;;
10311;SDS011;5201;48.776;9.128;2022-12-10T08:31:45;23.37;;;13.00;;
10311;SDS011;5201;48.776;9.128;2022-12-10T08:34:12;22.40;;;12.97;;
10311;SDS011;5201;48.776;9.128;2022-12-10T08:36:38;24.43;;;12.77;;
10311;SDS011;5201;48.776;9.128;2022-12-10T08:39:04;25.83;;;11.67;;
10311;SDS011;5201;48.776;9.128;2022-12-10T08:41:30;15.90;;;9.90;;
10311;SDS011;5201;48.776;9.128;2022-12-10T08:43:55;24.17;;;13.13;;
10311;SDS011;5201;48.776;9.128;2022-12-10T08:46:21;24.17;;;13.47;;
10311;SDS011;5201;48.776;9.128;2022-12-10T08:48:48;24.23;;;13.93;;
10311;SDS011;5201;48.776;9.128;2022-12-10T08:51:15;24.40;;;13.03;;
10311;SDS011;5201;48.776;9.128;2022-12-10T08:53:42;24.53;;;13.97;;
10311;SDS011;5201;48.776;9.128;2022-12-10T08:56:07;23.93;;;13.50;;
10311;SDS011;5201;48.776;9.128;2022-12-10T08:58:33;26.30;;;13.70;;
10311;SDS011;5201;48.776;9.128;2022-12-10T09:00:59;24.20;;;13.93;;
10311;SDS011;5201;48.776;9.128;2022-12-10T09:03:29;23.87;;;13.07;;
10311;SDS011;5201;48.776;9.128;2022-12-10T09:05:55;27.60;;;13.90;;
10311;SDS011;5201;48.776;9.128;2022-12-10T09:08:20;28.50;;;14.40;;
10311;SDS011;5201;48.776;9.128;2022-12-10T09:10:46;26.43;;;13.27;;
10311;SDS011;5201;48.776;9.128;2022-12-10T09:13:12;25.47;;;13.70;;
10311;SDS011;5201;48.776;9.128;2022-12-10T09:15:37;22.30;;;12.87;;
10311;SDS011;5201;48.776;9.128;2022-12-10T09:18:03;25.90;;;13.03;;
10311;SDS011;5201;48.776;9.128;2022-12-10T09:20:28;27.67;;;13.43;;
10311;SDS011;5201;48.776;9.128;2022-12-10T09:22:54;26.30;;;14.30;;
10311;SDS011;5201;48.776;9.128;2022-12-10T09:25:20;26.33;;;13.80;;
10311;SDS011;5201;48.776;9.128;2022-12-10T09:27:46;26.13;;;12.87;;
10311;SDS011;5201;48.776;9.128;2022-12-10T09:30:12;21.60;;;12.90;;
10311;SDS011;5201;48.776;9.128;2022-12-10T09:32:38;22.83;;;13.20;;
10311;SDS011;5201;48.776;9.128;2022-12-10T09:35:03;22.67;;;12.80;;
10311;SDS011;5201;48.776;9.128;2022-12-10T09:37:30;25.37;;;13.10;;
10311;SDS011;5201;48.776;9.128;2022-12-10T09:39:56;24.10;;;12.97;;
10311;SDS011;5201;48.776;9.128;2022-12-10T09:45:17;19.07;;;11.40;;
10311;SDS011;5201;48.776;9.128;2022-12-10T09:50:35;26.90;;;14.30;;
10311;SDS011;5201;48.776;9.128;2022-12-10T09:53:08;27.13;;;12.60;;
10311;SDS011;5201;48.776;9.128;2022-12-10T09:55:40;26.47;;;14.03;;
10311;SDS011;5201;48.776;9.128;2022-12-10T09:58:12;24.90;;;13.03;;
10311;SDS011;5201;48.776;9.128;2022-12-10T10:00:42;28.37;;;13.80;;
10311;SDS011;5201;48.776;9.128;2022-12-10T10:03:14;26.07;;;13.33;;
10311;SDS011;5201;48.776;9.128;2022-12-10T10:05:42;25.67;;;13.73;;
10311;SDS011;5201;48.776;9.128;2022-12-10T10:08:13;28.03;;;13.27;;
10311;SDS011;5201;48.776;9.128;2022-12-10T10:10:56;24.33;;;13.37;;
10311;SDS011;5201;48.776;9.128;2022-12-10T10:13:40;25.43;;;13.33;;
10311;SDS011;5201;48.776;9.128;2022-12-10T10:18:48;23.17;;;12.83;;
10311;SDS011;5201;48.776;9.128;2022-12-10T10:21:38;21.87;;;12.27;;
10311;SDS011;5201;48.776;9.128;2022-12-10T10:24:05;22.13;;;12.67;;
10311;SDS011;5201;48.776;9.128;2022-12-10T10:26:34;22.20;;;12.97;;
10311;SDS011;5201;48.776;9.128;2022-12-10T10:29:02;23.13;;;13.07;;
10311;SDS011;5201;48.776;9.128;2022-12-10T10:31:30;20.30;;;12.00;;
10311;SDS011;5201;48.776;9.128;2022-12-10T10:33:59;23.03;;;12.77;;
10311;SDS011;5201;48.776;9.128;2022-12-10T10:36:28;23.20;;;12.73;;
10311;SDS011;5201;48.776;9.128;2022-12-10T10:39:17;25.53;;;12.77;;
10311;SDS011;5201;48.776;9.128;2022-12-10T10:41:53;19.63;;;12.13;;
10311;SDS011;5201;48.776;9.128;2022-12-10T10:44:21;28.17;;;14.00;;
10311;SDS011;5201;48.776;9.128;2022-12-10T10:46:49;18.57;;;11.23;;
10311;SDS011;5201;48.776;9.128;2022-12-10T10:51:46;26.20;;;12.83;;
10311;SDS011;5201;48.776;9.128;2022-12-10T10:54:12;22.47;;;12.97;;
10311;SDS011;5201;48.776;9.128;2022-12-10T10:56:56;22.87;;;12.23;;
10311;SDS011;5201;48.776;9.128;2022-12-10T10:59:32;23.13;;;12.10;;
10311;SDS011;5201;48.776;9.128;2022-12-10T11:04:52;20.20;;;9.97;;
10311;SDS011;5201;48.776;9.128;2022-12-10T11:07:24;22.40;;;10.47;;
10311;SDS011;5201;48.776;9.128;2022-12-10T11:10:03;15.43;;;9.33;;
10311;SDS011;5201;48.776;9.128;2022-12-10T11:12:41;16.57;;;9.00;;
10311;SDS011;5201;48.776;9.128;2022-12-10T11:17:49;17.37;;;9.27;;
10311;SDS011;5201;48.776;9.128;2022-12-10T11:23:16;18.47;;;8.73;;
10311;SDS011;5201;48.776;9.128;2022-12-10T11:30:56;14.07;;;7.80;;
10311;SDS011;5201;48.776;9.128;2022-12-10T11:33:52;18.43;;;8.17;;
10311;SDS011;5201;48.776;9.128;2022-12-10T11:42:19;14.70;;;8.47;;
10311;SDS011;5201;48.776;9.128;2022-12-10T11:45:18;17.80;;;9.60;;
10311;SDS011;5201;48.776;9.128;2022-12-10T11:47:55;13.10;;;7.67;;
10311;SDS011;5201;48.776;9.128;2022-12-10T12:04:00;20.23;;;9.90;;
10311;SDS011;5201;48.776;9.128;2022-12-10T12:06:44;16.27;;;9.30;;
10311;SDS011;5201;48.776;9.128;2022-12-10T12:15:17;22.40;;;9.90;;
10311;SDS011;5201;48.776;9.128;2022-12-10T12:17:48;22.23;;;10.50;;
10311;SDS011;5201;48.776;9.128;2022-12-10T12:20:18;16.93;;;10.00;;
10311;SDS011;5201;48.776;9.128;2022-12-10T12:22:50;14.60;;;8.97;;
10311;SDS011;5201;48.776;9.128;2022-12-10T12:25:27;16.63;;;8.77;;
10311;SDS011;5201;48.776;9.128;2022-12-10T12:28:04;18.17;;;9.47;;
10311;SDS011;5201;48.776;9.128;2022-12-10T12:30:37;15.60;;;8.70;;
10311;SDS011;5201;48.776;9.128;2022-12-10T12:33:15;16.23;;;8.30;;
10311;SDS011;5201;48.776;9.128;2022-12-10T12:35:52;16.17;;;8.70;;
10311;SDS011;5201;48.776;9.128;2022-12-10T12:38:28;17.53;;;7.60;;
10311;SDS011;5201;48.776;9.128;2022-12-10T12:44:02;14.90;;;7.87;;
10311;SDS011;5201;48.776;9.128;2022-12-10T12:54:30;18.67;;;10.10;;
10311;SDS011;5201;48.776;9.128;2022-12-10T12:57:07;18.67;;;9.27;;
10311;SDS011;5201;48.776;9.128;2022-12-10T12:59:59;22.13;;;9.10;;
10311;SDS011;5201;48.776;9.128;2022-12-10T13:02:39;19.80;;;8.87;;
10311;SDS011;5201;48.776;9.128;2022-12-10T13:05:15;18.90;;;9.80;;
10311;SDS011;5201;48.776;9.128;2022-12-10T13:07:44;19.87;;;9.03;;
10311;SDS011;5201;48.776;9.128;2022-12-10T13:13:30;18.93;;;9.63;;
10311;SDS011;5201;48.776;9.128;2022-12-10T13:40:22;17.87;;;10.10;;
10311;SDS011;5201;48.776;9.128;2022-12-10T13:49:02;19.33;;;9.73;;
10311;SDS011;5201;48.776;9.128;2022-12-10T13:57:30;26.83;;;10.17;;
10311;SDS011;5201;48.776;9.128;2022-12-10T14:05:33;19.43;;;9.43;;
10311;SDS011;5201;48.776;9.128;2022-12-10T14:08:22;20.93;;;10.30;;
10311;SDS011;5201;48.776;9.128;2022-12-10T14:10:52;19.03;;;9.50;;
10311;SDS011;5201;48.776;9.128;2022-12-10T14:13:20;20.77;;;9.60;;
10311;SDS011;5201;48.776;9.128;2022-12-10T14:15:57;18.73;;;9.97;;
10311;SDS011;5201;48.776;9.128;2022-12-10T14:18:26;24.37;;;10.80;;
10311;SDS011;5201;48.776;9.128;2022-12-10T14:20:55;20.83;;;9.57;;
10311;SDS011;5201;48.776;9.128;2022-12-10T14:23:28;17.13;;;9.20;;
10311;SDS011;5201;48.776;9.128;2022-12-10T14:25:58;15.93;;;8.70;;
10311;SDS011;5201;48.776;9.128;2022-12-10T14:28:30;16.97;;;9.07;;
10311;SDS011;5201;48.776;9.128;2022-12-10T14:30:58;16.43;;;8.13;;
10311;SDS011;5201;48.776;9.128;2022-12-10T14:33:24;17.27;;;9.33;;
10311;SDS011;5201;48.776;9.128;2022-12-10T14:35:50;18.10;;;8.77;;
10311;SDS011;5201;48.776;9.128;2022-12-10T14:38:26;17.10;;;9.23;;
10311;SDS011;5201;48.776;9.128;2022-12-10T14:40:55;18.83;;;9.93;;
10311;SDS011;5201;48.776;9.128;2022-12-10T14:43:21;17.10;;;8.20;;
10311;SDS011;5201;48.776;9.128;2022-12-10T14:45:53;13.50;;;7.83;;
10311;SDS011;5201;48.776;9.128;2022-12-10T14:48:24;18.77;;;8.90;;
10311;SDS011;5201;48.776;9.128;2022-12-10T14:50:51;19.93;;;8.57;;
10311;SDS011;5201;48.776;9.128;2022-12-10T14:53:18;17.00;;;8.13;;
10311;SDS011;5201;48.776;9.128;2022-12-10T14:55:48;21.73;;;9.77;;
10311;SDS011;5201;48.776;9.128;2022-12-10T14:58:18;21.07;;;10.13;;
10311;SDS011;5201;48.776;9.128;2022-12-10T15:01:03;17.43;;;9.23;;
10311;SDS011;5201;48.776;9.128;2022-12-10T15:03:30;16.60;;;8.20;;
10311;SDS011;5201;48.776;9.128;2022-12-10T15:06:01;16.50;;;8.97;;
10311;SDS011;5201;48.776;9.128;2022-12-10T15:08:32;14.83;;;7.80;;
10311;SDS011;5201;48.776;9.128;2022-12-10T15:10:58;18.60;;;10.37;;
10311;SDS011;5201;48.776;9.128;2022-12-10T15:13:32;18.53;;;9.03;;
10311;SDS011;5201;48.776;9.128;2022-12-10T15:16:03;19.17;;;9.43;;
10311;SDS011;5201;48.776;9.128;2022-12-10T15:18:33;21.47;;;10.57;;
10311;SDS011;5201;48.776;9.128;2022-12-10T15:21:12;18.37;;;9.83;;
10311;SDS011;5201;48.776;9.128;2022-12-10T15:23:42;24.23;;;10.10;;
10311;SDS011;5201;48.776;9.128;2022-12-10T15:26:14;16.67;;;8.77;;
10311;SDS011;5201;48.776;9.128;2022-12-10T15:28:45;18.07;;;8.10;;
10311;SDS011;5201;48.776;9.128;2022-12-10T15:31:13;18.27;;;9.27;;
10311;SDS011;5201;48.776;9.128;2022-12-10T15:33:48;19.97;;;9.10;;
10311;SDS011;5201;48.776;9.128;2022-12-10T15:38:46;19.43;;;9.23;;
10311;SDS011;5201;48.776;9.128;2022-12-10T15:41:54;20.03;;;9.90;;
10311;SDS011;5201;48.776;9.128;2022-12-10T15:44:31;19.57;;;9.77;;
10311;SDS011;5201;48.776;9.128;2022-12-10T15:47:21;18.97;;;7.57;;
10311;SDS011;5201;48.776;9.128;2022-12-10T15:49:49;15.70;;;9.37;;
10311;SDS011;5201;48.776;9.128;2022-12-10T15:52:16;19.10;;;10.90;;
10311;SDS011;5201;48.776;9.128;2022-12-10T15:54:45;15.07;;;9.60;;
10311;SDS011;5201;48.776;9.128;2022-12-10T15:59:42;19.67;;;10.63;;
10311;SDS011;5201;48.776;9.128;2022-12-10T16:04:51;19.27;;;9.87;;
10311;SDS011;5201;48.776;9.128;2022-12-10T16:07:17;17.97;;;9.53;;
10311;SDS011;5201;48.776;9.128;2022-12-10T16:09:43;19.57;;;9.60;;
10311;SDS011;5201;48.776;9.128;2022-12-10T16:12:15;14.77;;;9.03;;
10311;SDS011;5201;48.776;9.128;2022-12-10T16:14:43;16.00;;;9.57;;
10311;SDS011;5201;48.776;9.128;2022-12-10T16:17:13;15.50;;;9.17;;
10311;SDS011;5201;48.776;9.128;2022-12-10T16:19:39;13.57;;;8.70;;
10311;SDS011;5201;48.776;9.128;2022-12-10T16:22:05;19.10;;;10.03;;
10311;SDS011;5201;48.776;9.128;2022-12-10T16:24:31;13.90;;;8.17;;
10311;SDS011;5201;48.776;9.128;2022-12-10T16:26:56;15.03;;;9.03;;
10311;SDS011;5201;48.776;9.128;2022-12-10T16:29:22;16.03;;;8.97;;
10311;SDS011;5201;48.776;9.128;2022-12-10T16:31:48;17.50;;;8.80;;
10311;SDS011;5201;48.776;9.128;2022-12-10T16:34:14;16.53;;;9.13;;
10311;SDS011;5201;48.776;9.128;2022-12-10T16:36:39;12.77;;;7.77;;
10311;SDS011;5201;48.776;9.128;2022-12-10T16:39:05;12.17;;;6.73;;
10311;SDS011;5201;48.776;9.128;2022-12-10T16:41:31;14.20;;;7.97;;
10311;SDS011;5201;48.776;9.128;2022-12-10T16:43:57;13.23;;;7.73;;
10311;SDS011;5201;48.776;9.128;2022-12-10T16:46:23;13.50;;;8.27;;
10311;SDS011;5201;48.776;9.128;2022-12-10T16:48:49;14.00;;;8.23;;
10311;SDS011;5201;48.776;9.128;2022-12-10T16:53:46;18.03;;;9.43;;
10311;SDS011;5201;48.776;9.128;2022-12-10T16:56:13;14.40;;;8.47;;
10311;SDS011;5201;48.776;9.128;2022-12-10T16:58:40;15.07;;;8.30;;
10311;SDS011;5201;48.776;9.128;2022-12-10T17:01:12;16.17;;;7.80;;
10311;SDS011;5201;48.776;9.128;2022-12-10T17:03:43;15.30;;;8.90;;
10311;SDS011;5201;48.776;9.128;2022-12-10T17:06:09;14.60;;;7.70;;
10311;SDS011;5201;48.776;9.128;2022-12-10T17:08:36;16.93;;;9.53;;
10311;SDS011;5201;48.776;9.128;2022-12-10T17:11:22;14.20;;;7.97;;
10311;SDS011;5201;48.776;9.128;2022-12-10T17:14:13;16.70;;;9.10;;
10311;SDS011;5201;48.776;9.128;2022-12-10T17:16:46;14.57;;;8.37;;
10311;SDS011;5201;48.776;9.128;2022-12-10T17:19:12;12.33;;;7.47;;